CheckWX is a tool to help pilots better visualize weather data.  It is not intended as a substitute for an official pre-flight weather briefing.

12:00:39 UTC

KETH METAR
Wheaton Municipal Airport
Wheaton, Minnesota, USA
Current

22 mins ago

KETH 251139Z AUTO 32004KT 10SM OVC038 M04/M06 A3041 RMK AO2
Observed
Mar-25 @ 11:39 UTC
Wind
  • 320° at 4 KTS
Visibility
10 SM
Flight Rules
VFR
Cloud Levels
  • Overcast at 3,800' AGL
Temperature
-4°C / 25°F
Dewpoint
-6°C / 21°F
Humidity
86%
Altimeter
30.41" Hg
Pressure
1029.81 hPa
Previous

50 mins ago

KETH 251111Z AUTO 32003KT 10SM OVC036 M04/M06 A3041 RMK AO2
Observed
Mar-25 @ 11:11 UTC
Wind
  • 320° at 3 KTS
Visibility
10 SM
Flight Rules
VFR
Cloud Levels
  • Overcast at 3,600' AGL
Temperature
-4°C / 25°F
Dewpoint
-6°C / 21°F
Humidity
86%
Altimeter
30.41" Hg
Pressure
1029.81 hPa
Previous

1 hour ago

KETH 251056Z AUTO 32003KT 10SM OVC036 M04/M06 A3040 RMK AO2
Observed
Mar-25 @ 10:56 UTC
Wind
  • 320° at 3 KTS
Visibility
10 SM
Flight Rules
VFR
Cloud Levels
  • Overcast at 3,600' AGL
Temperature
-4°C / 25°F
Dewpoint
-6°C / 21°F
Humidity
86%
Altimeter
30.4" Hg
Pressure
1029.41 hPa